sensor_id;sensor_type;location;lat;lon;timestamp;temperature;humidity
34542;DHT22;20784;51.332;12.410;2023-07-24T00:01:32;22.30;99.90
34542;DHT22;20784;51.332;12.410;2023-07-24T00:03:58;22.40;99.90
34542;DHT22;20784;51.332;12.410;2023-07-24T00:06:24;22.30;99.90
34542;DHT22;20784;51.332;12.410;2023-07-24T00:08:50;22.20;99.90
34542;DHT22;20784;51.332;12.410;2023-07-24T00:11:15;22.20;99.90
34542;DHT22;20784;51.332;12.410;2023-07-24T00:13:41;22.10;99.90
34542;DHT22;20784;51.332;12.410;2023-07-24T00:16:08;22.10;99.90
34542;DHT22;20784;51.332;12.410;2023-07-24T00:18:34;22.10;99.90
34542;DHT22;20784;51.332;12.410;2023-07-24T00:20:59;22.10;99.90
34542;DHT22;20784;51.332;12.410;2023-07-24T00:23:25;21.90;99.90
34542;DHT22;20784;51.332;12.410;2023-07-24T00:25:50;22.00;99.90
34542;DHT22;20784;51.332;12.410;2023-07-24T00:28:16;21.90;99.90
34542;DHT22;20784;51.332;12.410;2023-07-24T00:30:44;21.90;99.90
34542;DHT22;20784;51.332;12.410;2023-07-24T00:33:10;22.00;99.90
34542;DHT22;20784;51.332;12.410;2023-07-24T00:35:35;21.90;99.90
34542;DHT22;20784;51.332;12.410;2023-07-24T00:38:01;21.90;99.90
34542;DHT22;20784;51.332;12.410;2023-07-24T00:40:29;21.90;99.90
34542;DHT22;20784;51.332;12.410;2023-07-24T00:42:55;21.90;99.90
34542;DHT22;20784;51.332;12.410;2023-07-24T00:45:22;21.80;99.90
34542;DHT22;20784;51.332;12.410;2023-07-24T00:47:48;21.90;99.90
34542;DHT22;20784;51.332;12.410;2023-07-24T00:50:14;21.80;99.90
34542;DHT22;20784;51.332;12.410;2023-07-24T00:52:40;21.90;99.90
34542;DHT22;20784;51.332;12.410;2023-07-24T00:55:07;21.90;99.90
34542;DHT22;20784;51.332;12.410;2023-07-24T00:57:36;21.90;99.90
34542;DHT22;20784;51.332;12.410;2023-07-24T01:00:02;21.90;99.90
34542;DHT22;20784;51.332;12.410;2023-07-24T01:02:29;21.90;99.90
34542;DHT22;20784;51.332;12.410;2023-07-24T01:04:55;21.90;99.90
34542;DHT22;20784;51.332;12.410;2023-07-24T01:07:21;21.90;99.90
34542;DHT22;20784;51.332;12.410;2023-07-24T01:09:47;22.00;99.90
34542;DHT22;20784;51.332;12.410;2023-07-24T01:12:36;22.00;99.90
34542;DHT22;20784;51.332;12.410;2023-07-24T01:15:30;21.90;99.90
34542;DHT22;20784;51.332;12.410;2023-07-24T01:18:09;21.90;99.90
34542;DHT22;20784;51.332;12.410;2023-07-24T01:20:37;21.80;99.90
34542;DHT22;20784;51.332;12.410;2023-07-24T01:23:48;21.70;99.90
34542;DHT22;20784;51.332;12.410;2023-07-24T01:26:19;21.80;99.90
34542;DHT22;20784;51.332;12.410;2023-07-24T01:28:47;21.70;99.90
34542;DHT22;20784;51.332;12.410;2023-07-24T01:31:13;21.80;99.90
34542;DHT22;20784;51.332;12.410;2023-07-24T01:33:41;21.80;99.90
34542;DHT22;20784;51.332;12.410;2023-07-24T01:36:07;21.80;99.90
34542;DHT22;20784;51.332;12.410;2023-07-24T01:38:34;21.80;99.90
34542;DHT22;20784;51.332;12.410;2023-07-24T01:41:01;21.70;99.90
34542;DHT22;20784;51.332;12.410;2023-07-24T01:43:28;21.70;99.90
34542;DHT22;20784;51.332;12.410;2023-07-24T01:45:54;21.70;99.90
34542;DHT22;20784;51.332;12.410;2023-07-24T01:48:20;21.70;99.90
34542;DHT22;20784;51.332;12.410;2023-07-24T01:50:45;21.70;99.90
34542;DHT22;20784;51.332;12.410;2023-07-24T01:53:11;21.70;99.90
34542;DHT22;20784;51.332;12.410;2023-07-24T01:55:37;21.70;99.90
34542;DHT22;20784;51.332;12.410;2023-07-24T01:58:02;21.70;99.90
34542;DHT22;20784;51.332;12.410;2023-07-24T02:00:28;21.70;99.90
34542;DHT22;20784;51.332;12.410;2023-07-24T02:02:54;21.70;99.90
34542;DHT22;20784;51.332;12.410;2023-07-24T02:05:19;21.80;99.90
34542;DHT22;20784;51.332;12.410;2023-07-24T02:07:45;21.70;99.90
34542;DHT22;20784;51.332;12.410;2023-07-24T02:10:11;21.60;99.90
34542;DHT22;20784;51.332;12.410;2023-07-24T02:12:36;21.60;99.90
34542;DHT22;20784;51.332;12.410;2023-07-24T02:15:02;21.60;99.90
34542;DHT22;20784;51.332;12.410;2023-07-24T02:17:28;21.50;99.90
34542;DHT22;20784;51.332;12.410;2023-07-24T02:19:56;21.50;99.90
34542;DHT22;20784;51.332;12.410;2023-07-24T02:22:27;21.50;99.90
34542;DHT22;20784;51.332;12.410;2023-07-24T02:24:53;21.50;99.90
34542;DHT22;20784;51.332;12.410;2023-07-24T02:27:26;21.40;99.90
34542;DHT22;20784;51.332;12.410;2023-07-24T02:29:58;21.40;99.90
34542;DHT22;20784;51.332;12.410;2023-07-24T02:32:25;21.40;99.90
34542;DHT22;20784;51.332;12.410;2023-07-24T02:34:52;21.50;99.90
34542;DHT22;20784;51.332;12.410;2023-07-24T02:37:20;21.50;99.90
34542;DHT22;20784;51.332;12.410;2023-07-24T02:39:46;21.50;99.90
34542;DHT22;20784;51.332;12.410;2023-07-24T02:42:12;21.50;99.90
34542;DHT22;20784;51.332;12.410;2023-07-24T02:44:38;21.50;99.90
34542;DHT22;20784;51.332;12.410;2023-07-24T02:47:04;21.50;99.90
34542;DHT22;20784;51.332;12.410;2023-07-24T02:49:29;21.40;99.90
34542;DHT22;20784;51.332;12.410;2023-07-24T02:51:55;21.40;99.90
34542;DHT22;20784;51.332;12.410;2023-07-24T02:54:21;21.30;99.90
34542;DHT22;20784;51.332;12.410;2023-07-24T02:56:46;21.40;99.90
34542;DHT22;20784;51.332;12.410;2023-07-24T02:59:12;21.30;99.90
34542;DHT22;20784;51.332;12.410;2023-07-24T03:01:40;21.40;99.90
34542;DHT22;20784;51.332;12.410;2023-07-24T03:04:06;21.30;99.90
34542;DHT22;20784;51.332;12.410;2023-07-24T03:06:34;21.30;99.90
34542;DHT22;20784;51.332;12.410;2023-07-24T03:08:59;21.30;99.90
34542;DHT22;20784;51.332;12.410;2023-07-24T03:11:26;21.40;99.90
34542;DHT22;20784;51.332;12.410;2023-07-24T03:13:52;21.40;99.90
34542;DHT22;20784;51.332;12.410;2023-07-24T03:16:17;21.40;99.90
34542;DHT22;20784;51.332;12.410;2023-07-24T03:18:45;21.30;99.90
34542;DHT22;20784;51.332;12.410;2023-07-24T03:21:12;21.30;99.90
34542;DHT22;20784;51.332;12.410;2023-07-24T03:23:44;21.30;99.90
34542;DHT22;20784;51.332;12.410;2023-07-24T03:26:15;21.20;99.90
34542;DHT22;20784;51.332;12.410;2023-07-24T03:28:41;21.20;99.90
34542;DHT22;20784;51.332;12.410;2023-07-24T03:31:07;21.30;99.90
34542;DHT22;20784;51.332;12.410;2023-07-24T03:33:32;21.30;99.90
34542;DHT22;20784;51.332;12.410;2023-07-24T03:35:58;21.40;99.90
34542;DHT22;20784;51.332;12.410;2023-07-24T03:38:24;21.30;99.90
34542;DHT22;20784;51.332;12.410;2023-07-24T03:40:49;21.30;99.90
34542;DHT22;20784;51.332;12.410;2023-07-24T03:43:15;21.30;99.90
34542;DHT22;20784;51.332;12.410;2023-07-24T03:45:40;21.40;99.90
34542;DHT22;20784;51.332;12.410;2023-07-24T03:48:07;21.50;99.90
34542;DHT22;20784;51.332;12.410;2023-07-24T03:50:33;21.20;99.90
34542;DHT22;20784;51.332;12.410;2023-07-24T03:52:58;21.30;99.90
34542;DHT22;20784;51.332;12.410;2023-07-24T03:55:24;21.30;99.90
34542;DHT22;20784;51.332;12.410;2023-07-24T03:57:50;21.30;99.90
34542;DHT22;20784;51.332;12.410;2023-07-24T04:00:15;21.40;99.90
34542;DHT22;20784;51.332;12.410;2023-07-24T04:02:41;21.40;99.90
34542;DHT22;20784;51.332;12.410;2023-07-24T04:05:07;21.40;99.90
34542;DHT22;20784;51.332;12.410;2023-07-24T04:07:32;21.40;99.90
34542;DHT22;20784;51.332;12.410;2023-07-24T04:09:58;21.40;99.90
34542;DHT22;20784;51.332;12.410;2023-07-24T04:12:24;21.40;99.90
34542;DHT22;20784;51.332;12.410;2023-07-24T04:14:49;21.40;99.90
34542;DHT22;20784;51.332;12.410;2023-07-24T04:17:15;21.40;99.90
34542;DHT22;20784;51.332;12.410;2023-07-24T04:19:41;21.40;99.90
34542;DHT22;20784;51.332;12.410;2023-07-24T04:22:07;21.30;99.90
34542;DHT22;20784;51.332;12.410;2023-07-24T04:24:32;21.40;99.90
34542;DHT22;20784;51.332;12.410;2023-07-24T04:26:58;21.40;99.90
34542;DHT22;20784;51.332;12.410;2023-07-24T04:29:24;21.30;99.90
34542;DHT22;20784;51.332;12.410;2023-07-24T04:31:51;21.40;99.90
34542;DHT22;20784;51.332;12.410;2023-07-24T04:34:17;21.40;99.90
34542;DHT22;20784;51.332;12.410;2023-07-24T04:36:43;21.50;99.90
34542;DHT22;20784;51.332;12.410;2023-07-24T04:39:08;21.50;99.90
34542;DHT22;20784;51.332;12.410;2023-07-24T04:41:34;21.50;99.90
34542;DHT22;20784;51.332;12.410;2023-07-24T04:44:02;21.60;99.90
34542;DHT22;20784;51.332;12.410;2023-07-24T04:46:28;21.60;99.90
34542;DHT22;20784;51.332;12.410;2023-07-24T04:48:53;21.70;99.90
34542;DHT22;20784;51.332;12.410;2023-07-24T04:51:19;21.70;99.90
34542;DHT22;20784;51.332;12.410;2023-07-24T04:53:45;21.70;99.90
34542;DHT22;20784;51.332;12.410;2023-07-24T04:56:10;21.70;99.90
34542;DHT22;20784;51.332;12.410;2023-07-24T04:58:39;21.70;99.90
34542;DHT22;20784;51.332;12.410;2023-07-24T05:01:05;21.70;99.90
34542;DHT22;20784;51.332;12.410;2023-07-24T05:03:36;21.80;99.90
34542;DHT22;20784;51.332;12.410;2023-07-24T05:06:02;21.80;99.90
34542;DHT22;20784;51.332;12.410;2023-07-24T05:08:31;21.90;99.90
34542;DHT22;20784;51.332;12.410;2023-07-24T05:10:58;21.90;99.90
34542;DHT22;20784;51.332;12.410;2023-07-24T05:13:28;22.00;99.90
34542;DHT22;20784;51.332;12.410;2023-07-24T05:15:53;21.90;99.90
34542;DHT22;20784;51.332;12.410;2023-07-24T05:18:19;22.00;99.90
34542;DHT22;20784;51.332;12.410;2023-07-24T05:20:48;22.00;99.90
34542;DHT22;20784;51.332;12.410;2023-07-24T05:23:17;22.10;99.90
34542;DHT22;20784;51.332;12.410;2023-07-24T05:25:42;22.10;99.90
34542;DHT22;20784;51.332;12.410;2023-07-24T05:28:08;22.20;99.90
34542;DHT22;20784;51.332;12.410;2023-07-24T05:30:52;22.40;99.90
34542;DHT22;20784;51.332;12.410;2023-07-24T05:33:33;22.40;99.90
34542;DHT22;20784;51.332;12.410;2023-07-24T05:36:10;22.50;99.90
34542;DHT22;20784;51.332;12.410;2023-07-24T05:38:42;22.50;99.90
34542;DHT22;20784;51.332;12.410;2023-07-24T05:41:07;22.50;99.90
34542;DHT22;20784;51.332;12.410;2023-07-24T05:43:38;22.50;99.90
34542;DHT22;20784;51.332;12.410;2023-07-24T05:46:10;22.60;99.90
34542;DHT22;20784;51.332;12.410;2023-07-24T05:48:36;22.70;99.90
34542;DHT22;20784;51.332;12.410;2023-07-24T05:51:01;22.60;99.90
34542;DHT22;20784;51.332;12.410;2023-07-24T05:53:27;22.70;99.90
34542;DHT22;20784;51.332;12.410;2023-07-24T05:55:59;22.80;99.90
34542;DHT22;20784;51.332;12.410;2023-07-24T05:58:25;22.80;99.90
34542;DHT22;20784;51.332;12.410;2023-07-24T06:00:51;22.80;99.90
34542;DHT22;20784;51.332;12.410;2023-07-24T06:03:16;22.90;99.90
34542;DHT22;20784;51.332;12.410;2023-07-24T06:05:45;22.90;99.90
34542;DHT22;20784;51.332;12.410;2023-07-24T06:08:10;23.00;99.90
34542;DHT22;20784;51.332;12.410;2023-07-24T06:10:37;23.00;99.90
34542;DHT22;20784;51.332;12.410;2023-07-24T06:13:03;23.10;99.90
34542;DHT22;20784;51.332;12.410;2023-07-24T06:15:28;23.00;99.90
34542;DHT22;20784;51.332;12.410;2023-07-24T06:17:54;23.10;99.90
34542;DHT22;20784;51.332;12.410;2023-07-24T06:20:20;23.30;99.90
34542;DHT22;20784;51.332;12.410;2023-07-24T06:22:48;23.50;99.90
34542;DHT22;20784;51.332;12.410;2023-07-24T06:25:19;23.50;99.90
34542;DHT22;20784;51.332;12.410;2023-07-24T06:27:45;23.60;99.90
34542;DHT22;20784;51.332;12.410;2023-07-24T06:30:10;23.70;99.90
34542;DHT22;20784;51.332;12.410;2023-07-24T06:32:39;23.70;99.90
34542;DHT22;20784;51.332;12.410;2023-07-24T06:35:07;23.90;99.90
34542;DHT22;20784;51.332;12.410;2023-07-24T06:37:38;23.60;99.90
34542;DHT22;20784;51.332;12.410;2023-07-24T06:40:05;23.80;99.90
34542;DHT22;20784;51.332;12.410;2023-07-24T06:42:31;23.90;99.90
34542;DHT22;20784;51.332;12.410;2023-07-24T06:44:57;24.00;99.90
34542;DHT22;20784;51.332;12.410;2023-07-24T06:47:25;24.10;99.90
34542;DHT22;20784;51.332;12.410;2023-07-24T06:49:51;24.10;99.90
34542;DHT22;20784;51.332;12.410;2023-07-24T06:52:16;24.20;99.90
34542;DHT22;20784;51.332;12.410;2023-07-24T06:54:42;24.20;99.90
34542;DHT22;20784;51.332;12.410;2023-07-24T06:57:08;24.30;99.90
34542;DHT22;20784;51.332;12.410;2023-07-24T06:59:33;24.30;99.90
34542;DHT22;20784;51.332;12.410;2023-07-24T07:01:59;24.40;99.90
34542;DHT22;20784;51.332;12.410;2023-07-24T07:04:24;24.50;99.90
34542;DHT22;20784;51.332;12.410;2023-07-24T07:06:50;24.50;99.90
34542;DHT22;20784;51.332;12.410;2023-07-24T07:09:16;24.50;99.90
34542;DHT22;20784;51.332;12.410;2023-07-24T07:11:44;24.50;99.90
34542;DHT22;20784;51.332;12.410;2023-07-24T07:14:10;24.50;99.90
34542;DHT22;20784;51.332;12.410;2023-07-24T07:16:36;24.50;99.90
34542;DHT22;20784;51.332;12.410;2023-07-24T07:19:05;24.60;99.90
34542;DHT22;20784;51.332;12.410;2023-07-24T07:21:30;24.60;99.90
34542;DHT22;20784;51.332;12.410;2023-07-24T07:23:56;24.50;99.90
34542;DHT22;20784;51.332;12.410;2023-07-24T07:26:21;24.50;99.90
34542;DHT22;20784;51.332;12.410;2023-07-24T07:28:47;24.60;99.90
34542;DHT22;20784;51.332;12.410;2023-07-24T07:31:13;24.70;99.90
34542;DHT22;20784;51.332;12.410;2023-07-24T07:33:39;24.90;99.90
34542;DHT22;20784;51.332;12.410;2023-07-24T07:36:10;25.00;99.90
34542;DHT22;20784;51.332;12.410;2023-07-24T07:38:36;25.10;99.90
34542;DHT22;20784;51.332;12.410;2023-07-24T07:41:04;25.20;99.90
34542;DHT22;20784;51.332;12.410;2023-07-24T07:43:30;25.40;99.90
34542;DHT22;20784;51.332;12.410;2023-07-24T07:45:56;25.30;99.90
34542;DHT22;20784;51.332;12.410;2023-07-24T07:48:26;25.40;99.90
34542;DHT22;20784;51.332;12.410;2023-07-24T07:50:52;25.40;99.90
34542;DHT22;20784;51.332;12.410;2023-07-24T07:53:18;25.30;99.90
34542;DHT22;20784;51.332;12.410;2023-07-24T07:55:43;25.40;99.90
34542;DHT22;20784;51.332;12.410;2023-07-24T07:58:09;25.30;99.90
34542;DHT22;20784;51.332;12.410;2023-07-24T08:00:35;25.20;99.90
34542;DHT22;20784;51.332;12.410;2023-07-24T08:03:00;25.20;99.90
34542;DHT22;20784;51.332;12.410;2023-07-24T08:05:26;25.20;99.90
34542;DHT22;20784;51.332;12.410;2023-07-24T08:07:51;25.20;99.90
34542;DHT22;20784;51.332;12.410;2023-07-24T08:10:17;25.30;99.90
34542;DHT22;20784;51.332;12.410;2023-07-24T08:12:43;25.50;99.90
34542;DHT22;20784;51.332;12.410;2023-07-24T08:15:11;25.70;99.90
34542;DHT22;20784;51.332;12.410;2023-07-24T08:17:37;25.70;99.90
34542;DHT22;20784;51.332;12.410;2023-07-24T08:20:03;25.70;99.90
34542;DHT22;20784;51.332;12.410;2023-07-24T08:22:29;25.90;99.90
34542;DHT22;20784;51.332;12.410;2023-07-24T08:24:55;25.80;99.90
34542;DHT22;20784;51.332;12.410;2023-07-24T08:27:20;26.00;99.90
34542;DHT22;20784;51.332;12.410;2023-07-24T08:29:49;26.10;99.90
34542;DHT22;20784;51.332;12.410;2023-07-24T08:32:15;26.30;99.90
34542;DHT22;20784;51.332;12.410;2023-07-24T08:34:44;26.40;99.90
34542;DHT22;20784;51.332;12.410;2023-07-24T08:37:11;26.60;99.90
34542;DHT22;20784;51.332;12.410;2023-07-24T08:39:37;26.70;99.90
34542;DHT22;20784;51.332;12.410;2023-07-24T08:42:11;26.70;99.90
34542;DHT22;20784;51.332;12.410;2023-07-24T08:44:37;26.90;99.90
34542;DHT22;20784;51.332;12.410;2023-07-24T08:47:03;26.90;99.90
34542;DHT22;20784;51.332;12.410;2023-07-24T08:49:30;27.00;99.90
34542;DHT22;20784;51.332;12.410;2023-07-24T08:51:56;26.80;99.90
34542;DHT22;20784;51.332;12.410;2023-07-24T08:54:24;26.90;99.90
34542;DHT22;20784;51.332;12.410;2023-07-24T08:56:52;27.00;99.90
34542;DHT22;20784;51.332;12.410;2023-07-24T08:59:21;27.10;99.90
34542;DHT22;20784;51.332;12.410;2023-07-24T09:01:46;27.00;99.90
34542;DHT22;20784;51.332;12.410;2023-07-24T09:04:12;27.00;99.90
34542;DHT22;20784;51.332;12.410;2023-07-24T09:06:38;27.30;99.90
34542;DHT22;20784;51.332;12.410;2023-07-24T09:09:14;27.50;99.90
34542;DHT22;20784;51.332;12.410;2023-07-24T09:11:50;27.70;99.90
34542;DHT22;20784;51.332;12.410;2023-07-24T09:14:27;27.70;99.90
34542;DHT22;20784;51.332;12.410;2023-07-24T09:17:09;27.60;99.90
34542;DHT22;20784;51.332;12.410;2023-07-24T09:19:35;27.60;99.90
34542;DHT22;20784;51.332;12.410;2023-07-24T09:22:13;27.50;99.90
34542;DHT22;20784;51.332;12.410;2023-07-24T09:24:53;27.60;99.90
34542;DHT22;20784;51.332;12.410;2023-07-24T09:27:19;27.70;99.90
34542;DHT22;20784;51.332;12.410;2023-07-24T09:29:45;27.70;99.90
34542;DHT22;20784;51.332;12.410;2023-07-24T09:32:27;27.80;99.90
34542;DHT22;20784;51.332;12.410;2023-07-24T09:34:53;27.70;99.90
34542;DHT22;20784;51.332;12.410;2023-07-24T09:37:34;27.70;99.90
34542;DHT22;20784;51.332;12.410;2023-07-24T09:40:04;27.70;99.90
34542;DHT22;20784;51.332;12.410;2023-07-24T09:42:34;27.80;99.90
34542;DHT22;20784;51.332;12.410;2023-07-24T09:45:01;27.70;99.90
34542;DHT22;20784;51.332;12.410;2023-07-24T09:47:26;27.70;99.90
34542;DHT22;20784;51.332;12.410;2023-07-24T09:49:52;27.60;99.90
34542;DHT22;20784;51.332;12.410;2023-07-24T09:52:22;27.50;99.90
34542;DHT22;20784;51.332;12.410;2023-07-24T09:57:28;27.40;99.90
34542;DHT22;20784;51.332;12.410;2023-07-24T09:59:56;27.30;99.90
34542;DHT22;20784;51.332;12.410;2023-07-24T10:02:22;27.10;99.90
34542;DHT22;20784;51.332;12.410;2023-07-24T10:04:49;27.10;99.90
34542;DHT22;20784;51.332;12.410;2023-07-24T10:07:18;27.20;99.90
34542;DHT22;20784;51.332;12.410;2023-07-24T10:09:47;27.00;99.90
34542;DHT22;20784;51.332;12.410;2023-07-24T10:12:13;27.00;99.90
34542;DHT22;20784;51.332;12.410;2023-07-24T10:14:40;27.00;99.90
34542;DHT22;20784;51.332;12.410;2023-07-24T10:17:06;27.10;99.90
34542;DHT22;20784;51.332;12.410;2023-07-24T10:19:42;27.20;99.90
34542;DHT22;20784;51.332;12.410;2023-07-24T10:22:18;27.40;99.90
34542;DHT22;20784;51.332;12.410;2023-07-24T10:24:45;27.90;99.90
34542;DHT22;20784;51.332;12.410;2023-07-24T10:27:11;28.20;99.90
34542;DHT22;20784;51.332;12.410;2023-07-24T10:29:37;28.50;99.90
34542;DHT22;20784;51.332;12.410;2023-07-24T10:32:03;28.30;99.90
34542;DHT22;20784;51.332;12.410;2023-07-24T10:34:38;28.30;99.90
34542;DHT22;20784;51.332;12.410;2023-07-24T10:37:08;28.50;99.90
34542;DHT22;20784;51.332;12.410;2023-07-24T10:39:41;28.50;99.90
34542;DHT22;20784;51.332;12.410;2023-07-24T10:42:08;28.50;99.90
34542;DHT22;20784;51.332;12.410;2023-07-24T10:44:34;28.50;99.90
34542;DHT22;20784;51.332;12.410;2023-07-24T10:47:00;28.60;99.90
34542;DHT22;20784;51.332;12.410;2023-07-24T10:49:26;28.60;99.90
34542;DHT22;20784;51.332;12.410;2023-07-24T10:51:56;28.60;99.90
34542;DHT22;20784;51.332;12.410;2023-07-24T10:54:24;28.50;99.90
34542;DHT22;20784;51.332;12.410;2023-07-24T10:56:56;28.40;99.90
34542;DHT22;20784;51.332;12.410;2023-07-24T10:59:22;28.50;99.90
34542;DHT22;20784;51.332;12.410;2023-07-24T11:01:47;28.60;99.90
34542;DHT22;20784;51.332;12.410;2023-07-24T11:04:13;28.60;99.90
34542;DHT22;20784;51.332;12.410;2023-07-24T11:06:39;28.50;99.90
34542;DHT22;20784;51.332;12.410;2023-07-24T11:09:05;28.50;99.90
34542;DHT22;20784;51.332;12.410;2023-07-24T11:11:32;28.20;99.90
34542;DHT22;20784;51.332;12.410;2023-07-24T11:13:58;28.20;99.90
34542;DHT22;20784;51.332;12.410;2023-07-24T11:16:23;28.10;99.90
34542;DHT22;20784;51.332;12.410;2023-07-24T11:18:50;28.20;99.90
34542;DHT22;20784;51.332;12.410;2023-07-24T11:21:22;28.10;99.90
34542;DHT22;20784;51.332;12.410;2023-07-24T11:23:55;28.20;99.90
34542;DHT22;20784;51.332;12.410;2023-07-24T11:26:25;28.10;99.90
34542;DHT22;20784;51.332;12.410;2023-07-24T11:28:54;28.20;99.90
34542;DHT22;20784;51.332;12.410;2023-07-24T11:31:19;28.30;99.90
34542;DHT22;20784;51.332;12.410;2023-07-24T11:33:49;28.20;99.90
34542;DHT22;20784;51.332;12.410;2023-07-24T11:36:15;28.20;99.90
34542;DHT22;20784;51.332;12.410;2023-07-24T11:38:41;28.10;99.90
34542;DHT22;20784;51.332;12.410;2023-07-24T11:41:08;27.90;99.90
34542;DHT22;20784;51.332;12.410;2023-07-24T11:43:34;28.00;99.90
34542;DHT22;20784;51.332;12.410;2023-07-24T11:46:03;28.00;99.90
34542;DHT22;20784;51.332;12.410;2023-07-24T11:48:32;28.10;99.90
34542;DHT22;20784;51.332;12.410;2023-07-24T11:50:57;28.30;99.90
34542;DHT22;20784;51.332;12.410;2023-07-24T11:55:53;28.40;99.90
34542;DHT22;20784;51.332;12.410;2023-07-24T11:58:25;28.30;99.90
34542;DHT22;20784;51.332;12.410;2023-07-24T12:00:51;28.40;99.90
34542;DHT22;20784;51.332;12.410;2023-07-24T12:05:47;28.50;99.90
34542;DHT22;20784;51.332;12.410;2023-07-24T12:08:12;28.60;99.90
34542;DHT22;20784;51.332;12.410;2023-07-24T12:10:40;28.70;99.90
34542;DHT22;20784;51.332;12.410;2023-07-24T12:13:06;29.10;99.90
34542;DHT22;20784;51.332;12.410;2023-07-24T12:15:31;29.20;99.90
34542;DHT22;20784;51.332;12.410;2023-07-24T12:17:59;29.50;99.90
34542;DHT22;20784;51.332;12.410;2023-07-24T12:20:26;29.50;99.90
34542;DHT22;20784;51.332;12.410;2023-07-24T12:22:52;29.70;99.90
34542;DHT22;20784;51.332;12.410;2023-07-24T12:25:18;29.60;99.90
34542;DHT22;20784;51.332;12.410;2023-07-24T12:27:45;29.60;99.90
34542;DHT22;20784;51.332;12.410;2023-07-24T12:30:10;29.30;99.90
34542;DHT22;20784;51.332;12.410;2023-07-24T12:32:36;29.20;99.90
34542;DHT22;20784;51.332;12.410;2023-07-24T12:35:01;29.00;99.90
34542;DHT22;20784;51.332;12.410;2023-07-24T12:37:27;28.80;99.90
34542;DHT22;20784;51.332;12.410;2023-07-24T12:39:54;28.80;99.90
34542;DHT22;20784;51.332;12.410;2023-07-24T12:42:19;28.90;99.90
34542;DHT22;20784;51.332;12.410;2023-07-24T12:44:47;29.10;99.90
34542;DHT22;20784;51.332;12.410;2023-07-24T12:47:12;29.20;99.90
34542;DHT22;20784;51.332;12.410;2023-07-24T12:49:38;29.20;99.90
34542;DHT22;20784;51.332;12.410;2023-07-24T12:52:05;29.30;99.90
34542;DHT22;20784;51.332;12.410;2023-07-24T12:54:31;29.40;99.90
34542;DHT22;20784;51.332;12.410;2023-07-24T12:56:57;29.40;99.90
34542;DHT22;20784;51.332;12.410;2023-07-24T12:59:23;29.20;99.90
34542;DHT22;20784;51.332;12.410;2023-07-24T13:01:49;28.90;99.90
34542;DHT22;20784;51.332;12.410;2023-07-24T13:04:14;28.80;99.90
34542;DHT22;20784;51.332;12.410;2023-07-24T13:06:40;28.60;99.90
34542;DHT22;20784;51.332;12.410;2023-07-24T13:09:05;28.40;99.90
34542;DHT22;20784;51.332;12.410;2023-07-24T13:11:31;28.30;99.90
34542;DHT22;20784;51.332;12.410;2023-07-24T13:13:58;28.30;99.90
34542;DHT22;20784;51.332;12.410;2023-07-24T13:16:24;28.20;99.90
34542;DHT22;20784;51.332;12.410;2023-07-24T13:18:49;28.10;99.90
34542;DHT22;20784;51.332;12.410;2023-07-24T13:21:15;28.10;99.90
34542;DHT22;20784;51.332;12.410;2023-07-24T13:23:41;28.10;99.90
34542;DHT22;20784;51.332;12.410;2023-07-24T13:26:07;28.00;99.90
34542;DHT22;20784;51.332;12.410;2023-07-24T13:28:39;27.80;99.90
34542;DHT22;20784;51.332;12.410;2023-07-24T13:31:13;27.70;99.90
34542;DHT22;20784;51.332;12.410;2023-07-24T13:33:45;27.80;99.90
34542;DHT22;20784;51.332;12.410;2023-07-24T13:36:11;27.70;99.90
34542;DHT22;20784;51.332;12.410;2023-07-24T13:38:37;27.60;99.90
34542;DHT22;20784;51.332;12.410;2023-07-24T13:41:03;27.70;99.90
34542;DHT22;20784;51.332;12.410;2023-07-24T13:43:30;27.70;99.90
34542;DHT22;20784;51.332;12.410;2023-07-24T13:45:56;27.80;99.90
34542;DHT22;20784;51.332;12.410;2023-07-24T13:48:22;27.80;99.90
34542;DHT22;20784;51.332;12.410;2023-07-24T13:50:49;28.00;99.90
34542;DHT22;20784;51.332;12.410;2023-07-24T13:53:14;28.30;99.90
34542;DHT22;20784;51.332;12.410;2023-07-24T13:55:40;28.20;99.90
34542;DHT22;20784;51.332;12.410;2023-07-24T13:58:06;28.30;99.90
34542;DHT22;20784;51.332;12.410;2023-07-24T14:00:31;28.40;99.90
34542;DHT22;20784;51.332;12.410;2023-07-24T14:02:57;28.40;99.90
34542;DHT22;20784;51.332;12.410;2023-07-24T14:05:23;28.30;99.90
34542;DHT22;20784;51.332;12.410;2023-07-24T14:07:48;28.50;99.90
34542;DHT22;20784;51.332;12.410;2023-07-24T14:10:14;28.40;99.90
34542;DHT22;20784;51.332;12.410;2023-07-24T14:12:39;28.20;99.90
34542;DHT22;20784;51.332;12.410;2023-07-24T14:15:05;28.20;99.90
34542;DHT22;20784;51.332;12.410;2023-07-24T14:17:31;28.10;99.90
34542;DHT22;20784;51.332;12.410;2023-07-24T14:19:57;28.10;99.90
34542;DHT22;20784;51.332;12.410;2023-07-24T14:22:22;28.10;99.90
34542;DHT22;20784;51.332;12.410;2023-07-24T14:24:48;28.10;99.90
34542;DHT22;20784;51.332;12.410;2023-07-24T14:27:14;28.10;99.90
34542;DHT22;20784;51.332;12.410;2023-07-24T14:29:39;28.00;99.90
34542;DHT22;20784;51.332;12.410;2023-07-24T14:32:08;28.00;99.90
34542;DHT22;20784;51.332;12.410;2023-07-24T14:34:34;28.00;99.90
34542;DHT22;20784;51.332;12.410;2023-07-24T14:37:00;28.10;99.90
34542;DHT22;20784;51.332;12.410;2023-07-24T14:39:26;28.10;99.90
34542;DHT22;20784;51.332;12.410;2023-07-24T14:41:51;28.20;99.90
34542;DHT22;20784;51.332;12.410;2023-07-24T14:44:17;28.40;99.90
34542;DHT22;20784;51.332;12.410;2023-07-24T14:46:43;28.60;99.90
34542;DHT22;20784;51.332;12.410;2023-07-24T14:49:08;28.70;99.90
34542;DHT22;20784;51.332;12.410;2023-07-24T14:51:34;28.80;99.90
34542;DHT22;20784;51.332;12.410;2023-07-24T14:54:00;28.80;99.90
34542;DHT22;20784;51.332;12.410;2023-07-24T14:56:25;28.60;99.90
34542;DHT22;20784;51.332;12.410;2023-07-24T14:58:51;28.60;99.90
34542;DHT22;20784;51.332;12.410;2023-07-24T15:01:19;28.30;99.90
34542;DHT22;20784;51.332;12.410;2023-07-24T15:03:45;28.20;99.90
34542;DHT22;20784;51.332;12.410;2023-07-24T15:06:10;28.10;99.90
34542;DHT22;20784;51.332;12.410;2023-07-24T15:08:36;28.00;99.90
34542;DHT22;20784;51.332;12.410;2023-07-24T15:11:01;28.10;99.90
34542;DHT22;20784;51.332;12.410;2023-07-24T15:13:27;28.00;99.90
34542;DHT22;20784;51.332;12.410;2023-07-24T15:15:53;28.00;99.90
34542;DHT22;20784;51.332;12.410;2023-07-24T15:18:19;27.90;99.90
34542;DHT22;20784;51.332;12.410;2023-07-24T15:20:44;27.70;99.90
34542;DHT22;20784;51.332;12.410;2023-07-24T15:23:13;27.70;99.90